Suite Judy — WDG2470 — position and weather

sailwx.info

Track history (hours):
 
Tides and Currents Weather Stations Pressure Air Temp Water Temp Dewpoint Dewpoint Depression Visibility Wind Speed Wind Dir Waves Ship Positions

Suite Judy

Owner: Suite Judy LLC, Cobbs Creek, VA. More information available from US FCC via Universal Licensing System.

Last reported at 2017-Oct-10 22:43 UTC. Time now 2017-Oct-17 22:33 UTC.
Position N 38°58' W 076°29'.

Length 13 m; draft 1.6 m.

Type: Ship. MMSI: 367515970.

Date/timePositionNaut miles runAvg speedWind from/ knotsBaromVisibWave heightAir tempDewpointWater temp
2017-Oct-10 22:43N 38°58' W 076°29'0 0.0
2017-Oct-10 22:30N 38°58' W 076°29'0 0.5
2017-Oct-10 22:00N 38°58' W 076°28'0 0.7
2017-Oct-10 21:30N 38°58' W 076°28'1 1.8
2017-Oct-10 21:01N 38°59' W 076°29'1 2.1
2017-Oct-10 20:30N 38°58' W 076°27'3 5.0
2017-Oct-10 20:01N 39°00' W 076°30'3 5.9
2017-Oct-10 19:31N 38°58' W 076°27'3 6.5
2017-Oct-10 19:00N 38°55' W 076°26'  
2017-Oct-01 15:27N 38°53' W 076°26'3 7.5
2017-Oct-01 15:00N 38°56' W 076°26'3 5.8
2017-Oct-01 14:31N 38°58' W 076°29'0 0.1
2017-Oct-01 14:01N 38°58' W 076°29'  
Track history (hours):
 
Tides and Currents Weather Stations Pressure Air Temp Water Temp Dewpoint Dewpoint Depression Visibility Wind Speed Wind Dir Waves Ship Positions

Suite Judy

Owner: Suite Judy LLC, Cobbs Creek, VA. More information available from US FCC via Universal Licensing System.

Last reported at 2017-Oct-10 22:43 UTC. Time now 2017-Oct-17 22:33 UTC.
Position N 38°58' W 076°29'.

Length 13 m; draft 1.6 m.

Type: Ship. MMSI: 367515970.

Date/timePositionNaut miles runAvg speedWind from/ knotsBaromVisibWave heightAir tempDewpointWater temp
2017-Oct-10 22:43N 38°58' W 076°29'0 0.0
2017-Oct-10 22:30N 38°58' W 076°29'0 0.5
2017-Oct-10 22:00N 38°58' W 076°28'0 0.7
2017-Oct-10 21:30N 38°58' W 076°28'1 1.8
2017-Oct-10 21:01N 38°59' W 076°29'1 2.1
2017-Oct-10 20:30N 38°58' W 076°27'3 5.0
2017-Oct-10 20:01N 39°00' W 076°30'3 5.9
2017-Oct-10 19:31N 38°58' W 076°27'3 6.5
2017-Oct-10 19:00N 38°55' W 076°26'  
2017-Oct-01 15:27N 38°53' W 076°26'3 7.5
2017-Oct-01 15:00N 38°56' W 076°26'3 5.8
2017-Oct-01 14:31N 38°58' W 076°29'0 0.1
2017-Oct-01 14:01N 38°58' W 076°29'  

Dump ship's entire track history